sensor_id;sensor_type;location;lat;lon;timestamp;P1;durP1;ratioP1;P2;durP2;ratioP2
33022;SDS011;19390;51.460;5.710;2023-12-29T00:00:32;10.48;;;1.92;;
33022;SDS011;19390;51.460;5.710;2023-12-29T00:02:58;7.38;;;1.30;;
33022;SDS011;19390;51.460;5.710;2023-12-29T00:05:24;10.93;;;1.33;;
33022;SDS011;19390;51.460;5.710;2023-12-29T00:07:50;4.43;;;1.60;;
33022;SDS011;19390;51.460;5.710;2023-12-29T00:10:15;6.43;;;1.80;;
33022;SDS011;19390;51.460;5.710;2023-12-29T00:12:41;7.22;;;1.08;;
33022;SDS011;19390;51.460;5.710;2023-12-29T00:15:10;5.32;;;1.38;;
33022;SDS011;19390;51.460;5.710;2023-12-29T00:17:35;7.25;;;1.10;;
33022;SDS011;19390;51.460;5.710;2023-12-29T00:20:05;9.82;;;1.27;;
33022;SDS011;19390;51.460;5.710;2023-12-29T00:22:33;7.28;;;1.40;;
33022;SDS011;19390;51.460;5.710;2023-12-29T00:24:59;8.93;;;1.85;;
33022;SDS011;19390;51.460;5.710;2023-12-29T00:27:25;6.20;;;1.38;;
33022;SDS011;19390;51.460;5.710;2023-12-29T00:29:50;5.28;;;1.10;;
33022;SDS011;19390;51.460;5.710;2023-12-29T00:32:16;5.03;;;1.27;;
33022;SDS011;19390;51.460;5.710;2023-12-29T00:34:41;6.45;;;1.30;;
33022;SDS011;19390;51.460;5.710;2023-12-29T00:37:07;9.00;;;1.67;;
33022;SDS011;19390;51.460;5.710;2023-12-29T00:39:33;12.15;;;1.40;;
33022;SDS011;19390;51.460;5.710;2023-12-29T00:42:03;10.63;;;1.13;;
33022;SDS011;19390;51.460;5.710;2023-12-29T00:44:30;9.18;;;2.30;;
33022;SDS011;19390;51.460;5.710;2023-12-29T00:46:55;7.45;;;1.58;;
33022;SDS011;19390;51.460;5.710;2023-12-29T00:49:21;12.57;;;1.85;;
33022;SDS011;19390;51.460;5.710;2023-12-29T00:51:47;11.50;;;1.70;;
33022;SDS011;19390;51.460;5.710;2023-12-29T00:54:13;6.20;;;1.40;;
33022;SDS011;19390;51.460;5.710;2023-12-29T00:56:38;6.88;;;1.40;;
33022;SDS011;19390;51.460;5.710;2023-12-29T00:59:04;7.60;;;1.63;;
33022;SDS011;19390;51.460;5.710;2023-12-29T01:01:33;10.77;;;1.75;;
33022;SDS011;19390;51.460;5.710;2023-12-29T01:04:00;9.20;;;1.70;;
33022;SDS011;19390;51.460;5.710;2023-12-29T01:06:25;6.90;;;1.33;;
33022;SDS011;19390;51.460;5.710;2023-12-29T01:08:51;8.50;;;1.30;;
33022;SDS011;19390;51.460;5.710;2023-12-29T01:11:16;8.60;;;1.60;;
33022;SDS011;19390;51.460;5.710;2023-12-29T01:13:42;7.65;;;1.38;;
33022;SDS011;19390;51.460;5.710;2023-12-29T01:16:07;10.75;;;1.80;;
33022;SDS011;19390;51.460;5.710;2023-12-29T01:18:33;10.88;;;1.83;;
33022;SDS011;19390;51.460;5.710;2023-12-29T01:20:59;6.00;;;1.30;;
33022;SDS011;19390;51.460;5.710;2023-12-29T01:23:24;10.52;;;2.08;;
33022;SDS011;19390;51.460;5.710;2023-12-29T01:25:50;13.95;;;2.03;;
33022;SDS011;19390;51.460;5.710;2023-12-29T01:28:15;8.88;;;1.50;;
33022;SDS011;19390;51.460;5.710;2023-12-29T01:30:41;7.18;;;1.80;;
33022;SDS011;19390;51.460;5.710;2023-12-29T01:33:06;20.80;;;2.20;;
33022;SDS011;19390;51.460;5.710;2023-12-29T01:35:32;6.25;;;1.83;;
33022;SDS011;19390;51.460;5.710;2023-12-29T01:37:58;14.50;;;2.42;;
33022;SDS011;19390;51.460;5.710;2023-12-29T01:40:23;9.15;;;2.17;;
33022;SDS011;19390;51.460;5.710;2023-12-29T01:42:49;15.90;;;2.58;;
33022;SDS011;19390;51.460;5.710;2023-12-29T01:45:19;10.95;;;1.88;;
33022;SDS011;19390;51.460;5.710;2023-12-29T01:47:49;8.27;;;2.42;;
33022;SDS011;19390;51.460;5.710;2023-12-29T01:50:17;5.38;;;1.80;;
33022;SDS011;19390;51.460;5.710;2023-12-29T01:52:44;14.85;;;3.08;;
33022;SDS011;19390;51.460;5.710;2023-12-29T01:55:14;13.82;;;2.10;;
33022;SDS011;19390;51.460;5.710;2023-12-29T01:57:42;15.35;;;2.63;;
33022;SDS011;19390;51.460;5.710;2023-12-29T02:00:08;9.48;;;2.00;;
33022;SDS011;19390;51.460;5.710;2023-12-29T02:02:35;14.32;;;2.25;;
33022;SDS011;19390;51.460;5.710;2023-12-29T02:05:01;13.00;;;2.80;;
33022;SDS011;19390;51.460;5.710;2023-12-29T02:07:27;14.40;;;2.20;;
33022;SDS011;19390;51.460;5.710;2023-12-29T02:09:56;9.07;;;2.60;;
33022;SDS011;19390;51.460;5.710;2023-12-29T02:12:25;10.43;;;1.90;;
33022;SDS011;19390;51.460;5.710;2023-12-29T02:14:51;7.57;;;2.10;;
33022;SDS011;19390;51.460;5.710;2023-12-29T02:17:22;10.88;;;2.17;;
33022;SDS011;19390;51.460;5.710;2023-12-29T02:19:58;10.98;;;2.50;;
33022;SDS011;19390;51.460;5.710;2023-12-29T02:22:24;13.00;;;2.38;;
33022;SDS011;19390;51.460;5.710;2023-12-29T02:24:50;9.27;;;1.90;;
33022;SDS011;19390;51.460;5.710;2023-12-29T02:29:43;12.80;;;2.80;;
33022;SDS011;19390;51.460;5.710;2023-12-29T02:32:11;9.30;;;1.55;;
33022;SDS011;19390;51.460;5.710;2023-12-29T02:34:41;8.50;;;2.55;;
33022;SDS011;19390;51.460;5.710;2023-12-29T02:37:09;9.02;;;2.38;;
33022;SDS011;19390;51.460;5.710;2023-12-29T02:39:37;13.75;;;2.05;;
33022;SDS011;19390;51.460;5.710;2023-12-29T02:42:03;8.35;;;2.17;;
33022;SDS011;19390;51.460;5.710;2023-12-29T02:44:29;7.25;;;1.83;;
33022;SDS011;19390;51.460;5.710;2023-12-29T02:46:55;14.77;;;1.55;;
33022;SDS011;19390;51.460;5.710;2023-12-29T02:49:20;12.05;;;1.88;;
33022;SDS011;19390;51.460;5.710;2023-12-29T02:51:46;7.30;;;1.40;;
33022;SDS011;19390;51.460;5.710;2023-12-29T02:54:14;9.43;;;1.55;;
33022;SDS011;19390;51.460;5.710;2023-12-29T02:56:40;6.53;;;1.63;;
33022;SDS011;19390;51.460;5.710;2023-12-29T02:59:05;6.78;;;1.48;;
33022;SDS011;19390;51.460;5.710;2023-12-29T03:01:31;10.85;;;1.30;;
33022;SDS011;19390;51.460;5.710;2023-12-29T03:03:57;10.18;;;1.90;;
33022;SDS011;19390;51.460;5.710;2023-12-29T03:06:22;6.50;;;1.48;;
33022;SDS011;19390;51.460;5.710;2023-12-29T03:08:49;6.88;;;1.63;;
33022;SDS011;19390;51.460;5.710;2023-12-29T03:11:15;8.65;;;1.58;;
33022;SDS011;19390;51.460;5.710;2023-12-29T03:13:41;7.65;;;1.55;;
33022;SDS011;19390;51.460;5.710;2023-12-29T03:16:06;12.88;;;1.58;;
33022;SDS011;19390;51.460;5.710;2023-12-29T03:18:32;7.28;;;1.60;;
33022;SDS011;19390;51.460;5.710;2023-12-29T03:20:57;7.82;;;1.08;;
33022;SDS011;19390;51.460;5.710;2023-12-29T03:23:23;9.93;;;2.45;;
33022;SDS011;19390;51.460;5.710;2023-12-29T03:25:48;10.48;;;1.48;;
33022;SDS011;19390;51.460;5.710;2023-12-29T03:28:14;11.10;;;1.65;;
33022;SDS011;19390;51.460;5.710;2023-12-29T03:30:39;5.20;;;1.30;;
33022;SDS011;19390;51.460;5.710;2023-12-29T03:33:05;6.88;;;0.98;;
33022;SDS011;19390;51.460;5.710;2023-12-29T03:35:30;8.35;;;1.48;;
33022;SDS011;19390;51.460;5.710;2023-12-29T03:37:56;6.10;;;1.20;;
33022;SDS011;19390;51.460;5.710;2023-12-29T03:40:21;7.95;;;1.15;;
33022;SDS011;19390;51.460;5.710;2023-12-29T03:42:47;11.18;;;1.50;;
33022;SDS011;19390;51.460;5.710;2023-12-29T03:45:12;8.55;;;2.17;;
33022;SDS011;19390;51.460;5.710;2023-12-29T03:47:38;10.75;;;1.83;;
33022;SDS011;19390;51.460;5.710;2023-12-29T03:50:04;11.55;;;3.65;;
33022;SDS011;19390;51.460;5.710;2023-12-29T03:52:30;4.45;;;1.38;;
33022;SDS011;19390;51.460;5.710;2023-12-29T03:54:55;12.68;;;1.58;;
33022;SDS011;19390;51.460;5.710;2023-12-29T03:57:21;12.73;;;1.63;;
33022;SDS011;19390;51.460;5.710;2023-12-29T03:59:46;3.70;;;1.20;;
33022;SDS011;19390;51.460;5.710;2023-12-29T04:02:12;6.43;;;1.38;;
33022;SDS011;19390;51.460;5.710;2023-12-29T04:04:37;7.82;;;1.55;;
33022;SDS011;19390;51.460;5.710;2023-12-29T04:07:03;4.72;;;1.30;;
33022;SDS011;19390;51.460;5.710;2023-12-29T04:09:30;4.63;;;1.10;;
33022;SDS011;19390;51.460;5.710;2023-12-29T04:11:55;7.70;;;2.13;;
33022;SDS011;19390;51.460;5.710;2023-12-29T04:14:21;8.65;;;1.30;;
33022;SDS011;19390;51.460;5.710;2023-12-29T04:16:46;8.57;;;1.50;;
33022;SDS011;19390;51.460;5.710;2023-12-29T04:19:12;7.60;;;1.73;;
33022;SDS011;19390;51.460;5.710;2023-12-29T04:21:38;7.18;;;1.27;;
33022;SDS011;19390;51.460;5.710;2023-12-29T04:24:03;12.13;;;1.40;;
33022;SDS011;19390;51.460;5.710;2023-12-29T04:26:29;4.65;;;1.13;;
33022;SDS011;19390;51.460;5.710;2023-12-29T04:28:59;9.63;;;1.38;;
33022;SDS011;19390;51.460;5.710;2023-12-29T04:31:25;8.35;;;1.45;;
33022;SDS011;19390;51.460;5.710;2023-12-29T04:33:51;8.55;;;1.20;;
33022;SDS011;19390;51.460;5.710;2023-12-29T04:36:16;7.18;;;1.52;;
33022;SDS011;19390;51.460;5.710;2023-12-29T04:38:42;15.05;;;1.73;;
33022;SDS011;19390;51.460;5.710;2023-12-29T04:41:07;9.43;;;1.33;;
33022;SDS011;19390;51.460;5.710;2023-12-29T04:43:33;15.32;;;1.48;;
33022;SDS011;19390;51.460;5.710;2023-12-29T04:45:58;10.95;;;1.60;;
33022;SDS011;19390;51.460;5.710;2023-12-29T04:48:25;9.18;;;1.20;;
33022;SDS011;19390;51.460;5.710;2023-12-29T04:50:50;8.30;;;1.40;;
33022;SDS011;19390;51.460;5.710;2023-12-29T04:53:17;8.25;;;1.40;;
33022;SDS011;19390;51.460;5.710;2023-12-29T04:55:42;6.28;;;1.08;;
33022;SDS011;19390;51.460;5.710;2023-12-29T04:58:08;13.38;;;2.10;;
33022;SDS011;19390;51.460;5.710;2023-12-29T05:00:33;6.28;;;1.40;;
33022;SDS011;19390;51.460;5.710;2023-12-29T05:02:59;6.38;;;1.02;;
33022;SDS011;19390;51.460;5.710;2023-12-29T05:05:24;13.38;;;1.52;;
33022;SDS011;19390;51.460;5.710;2023-12-29T05:07:50;13.00;;;1.48;;
33022;SDS011;19390;51.460;5.710;2023-12-29T05:10:15;10.13;;;1.88;;
33022;SDS011;19390;51.460;5.710;2023-12-29T05:12:41;10.57;;;1.30;;
33022;SDS011;19390;51.460;5.710;2023-12-29T05:15:06;11.40;;;1.92;;
33022;SDS011;19390;51.460;5.710;2023-12-29T05:17:32;14.30;;;2.17;;
33022;SDS011;19390;51.460;5.710;2023-12-29T05:19:58;12.23;;;1.35;;
33022;SDS011;19390;51.460;5.710;2023-12-29T05:22:23;10.07;;;1.50;;
33022;SDS011;19390;51.460;5.710;2023-12-29T05:24:49;9.30;;;1.40;;
33022;SDS011;19390;51.460;5.710;2023-12-29T05:27:14;6.93;;;1.25;;
33022;SDS011;19390;51.460;5.710;2023-12-29T05:29:41;16.83;;;2.38;;
33022;SDS011;19390;51.460;5.710;2023-12-29T05:32:06;5.43;;;1.40;;
33022;SDS011;19390;51.460;5.710;2023-12-29T05:34:33;7.60;;;1.90;;
33022;SDS011;19390;51.460;5.710;2023-12-29T05:36:59;9.73;;;1.77;;
33022;SDS011;19390;51.460;5.710;2023-12-29T05:39:24;5.20;;;1.63;;
33022;SDS011;19390;51.460;5.710;2023-12-29T05:41:50;6.57;;;1.17;;
33022;SDS011;19390;51.460;5.710;2023-12-29T05:44:15;14.88;;;1.88;;
33022;SDS011;19390;51.460;5.710;2023-12-29T05:46:45;7.97;;;1.20;;
33022;SDS011;19390;51.460;5.710;2023-12-29T05:49:11;12.63;;;1.52;;
33022;SDS011;19390;51.460;5.710;2023-12-29T05:51:37;7.20;;;1.23;;
33022;SDS011;19390;51.460;5.710;2023-12-29T05:54:03;6.93;;;2.20;;
33022;SDS011;19390;51.460;5.710;2023-12-29T05:56:28;9.05;;;1.30;;
33022;SDS011;19390;51.460;5.710;2023-12-29T05:58:54;8.02;;;1.50;;
33022;SDS011;19390;51.460;5.710;2023-12-29T06:01:20;6.07;;;1.00;;
33022;SDS011;19390;51.460;5.710;2023-12-29T06:03:46;9.68;;;1.52;;
33022;SDS011;19390;51.460;5.710;2023-12-29T06:06:11;10.43;;;1.40;;
33022;SDS011;19390;51.460;5.710;2023-12-29T06:08:37;9.90;;;1.15;;
33022;SDS011;19390;51.460;5.710;2023-12-29T06:11:03;11.05;;;1.92;;
33022;SDS011;19390;51.460;5.710;2023-12-29T06:13:28;12.77;;;1.90;;
33022;SDS011;19390;51.460;5.710;2023-12-29T06:15:54;6.57;;;1.40;;
33022;SDS011;19390;51.460;5.710;2023-12-29T06:18:20;7.05;;;1.23;;
33022;SDS011;19390;51.460;5.710;2023-12-29T06:20:46;5.32;;;1.13;;
33022;SDS011;19390;51.460;5.710;2023-12-29T06:23:12;5.57;;;1.27;;
33022;SDS011;19390;51.460;5.710;2023-12-29T06:25:37;5.88;;;1.20;;
33022;SDS011;19390;51.460;5.710;2023-12-29T06:28:06;8.07;;;1.55;;
33022;SDS011;19390;51.460;5.710;2023-12-29T06:30:32;10.43;;;1.55;;
33022;SDS011;19390;51.460;5.710;2023-12-29T06:32:57;7.38;;;1.63;;
33022;SDS011;19390;51.460;5.710;2023-12-29T06:35:23;10.80;;;1.35;;
33022;SDS011;19390;51.460;5.710;2023-12-29T06:37:49;10.82;;;1.65;;
33022;SDS011;19390;51.460;5.710;2023-12-29T06:40:15;8.35;;;1.48;;
33022;SDS011;19390;51.460;5.710;2023-12-29T06:42:41;9.50;;;1.08;;
33022;SDS011;19390;51.460;5.710;2023-12-29T06:45:07;10.90;;;1.10;;
33022;SDS011;19390;51.460;5.710;2023-12-29T06:47:33;5.75;;;1.17;;
33022;SDS011;19390;51.460;5.710;2023-12-29T06:49:58;9.95;;;1.45;;
33022;SDS011;19390;51.460;5.710;2023-12-29T06:52:24;8.57;;;1.63;;
33022;SDS011;19390;51.460;5.710;2023-12-29T06:54:51;6.55;;;1.38;;
33022;SDS011;19390;51.460;5.710;2023-12-29T06:57:17;10.55;;;2.03;;
33022;SDS011;19390;51.460;5.710;2023-12-29T06:59:42;7.57;;;0.75;;
33022;SDS011;19390;51.460;5.710;2023-12-29T07:02:08;8.60;;;1.42;;
33022;SDS011;19390;51.460;5.710;2023-12-29T07:04:34;9.25;;;2.10;;
33022;SDS011;19390;51.460;5.710;2023-12-29T07:07:00;13.88;;;1.85;;
33022;SDS011;19390;51.460;5.710;2023-12-29T07:09:26;12.68;;;1.75;;
33022;SDS011;19390;51.460;5.710;2023-12-29T07:11:52;6.03;;;1.48;;
33022;SDS011;19390;51.460;5.710;2023-12-29T07:14:18;7.25;;;2.08;;
33022;SDS011;19390;51.460;5.710;2023-12-29T07:16:43;8.02;;;2.13;;
33022;SDS011;19390;51.460;5.710;2023-12-29T07:19:09;9.10;;;1.75;;
33022;SDS011;19390;51.460;5.710;2023-12-29T07:21:35;8.38;;;1.80;;
33022;SDS011;19390;51.460;5.710;2023-12-29T07:24:00;5.60;;;2.00;;
33022;SDS011;19390;51.460;5.710;2023-12-29T07:26:26;15.00;;;2.10;;
33022;SDS011;19390;51.460;5.710;2023-12-29T07:28:52;6.20;;;2.00;;
33022;SDS011;19390;51.460;5.710;2023-12-29T07:31:19;5.88;;;1.60;;
33022;SDS011;19390;51.460;5.710;2023-12-29T07:33:46;13.52;;;1.95;;
33022;SDS011;19390;51.460;5.710;2023-12-29T07:36:11;10.43;;;2.58;;
33022;SDS011;19390;51.460;5.710;2023-12-29T07:38:37;10.35;;;1.98;;
33022;SDS011;19390;51.460;5.710;2023-12-29T07:41:03;5.88;;;1.83;;
33022;SDS011;19390;51.460;5.710;2023-12-29T07:43:29;11.82;;;2.17;;
33022;SDS011;19390;51.460;5.710;2023-12-29T07:45:56;10.75;;;1.50;;
33022;SDS011;19390;51.460;5.710;2023-12-29T07:48:21;9.60;;;1.73;;
33022;SDS011;19390;51.460;5.710;2023-12-29T07:50:47;12.68;;;2.35;;
33022;SDS011;19390;51.460;5.710;2023-12-29T07:53:13;6.30;;;1.92;;
33022;SDS011;19390;51.460;5.710;2023-12-29T07:55:39;7.30;;;1.85;;
33022;SDS011;19390;51.460;5.710;2023-12-29T07:58:05;6.53;;;1.27;;
33022;SDS011;19390;51.460;5.710;2023-12-29T08:00:30;13.60;;;1.92;;
33022;SDS011;19390;51.460;5.710;2023-12-29T08:02:56;6.75;;;1.48;;
33022;SDS011;19390;51.460;5.710;2023-12-29T08:05:24;12.25;;;1.88;;
33022;SDS011;19390;51.460;5.710;2023-12-29T08:07:50;14.32;;;1.45;;
33022;SDS011;19390;51.460;5.710;2023-12-29T08:10:15;8.02;;;1.52;;
33022;SDS011;19390;51.460;5.710;2023-12-29T08:12:41;8.23;;;1.98;;
33022;SDS011;19390;51.460;5.710;2023-12-29T08:15:07;8.38;;;1.98;;
33022;SDS011;19390;51.460;5.710;2023-12-29T08:17:32;5.57;;;2.30;;
33022;SDS011;19390;51.460;5.710;2023-12-29T08:19:58;8.43;;;1.50;;
33022;SDS011;19390;51.460;5.710;2023-12-29T08:22:24;5.93;;;1.00;;
33022;SDS011;19390;51.460;5.710;2023-12-29T08:24:49;9.75;;;1.67;;
33022;SDS011;19390;51.460;5.710;2023-12-29T08:27:21;7.65;;;1.13;;
33022;SDS011;19390;51.460;5.710;2023-12-29T08:29:48;6.10;;;1.30;;
33022;SDS011;19390;51.460;5.710;2023-12-29T08:32:14;1.95;;;1.00;;
33022;SDS011;19390;51.460;5.710;2023-12-29T08:34:40;2.92;;;0.90;;
33022;SDS011;19390;51.460;5.710;2023-12-29T08:37:05;6.50;;;1.20;;
33022;SDS011;19390;51.460;5.710;2023-12-29T08:39:31;5.40;;;1.00;;
33022;SDS011;19390;51.460;5.710;2023-12-29T08:41:56;5.97;;;1.13;;
33022;SDS011;19390;51.460;5.710;2023-12-29T08:44:22;2.72;;;0.90;;
33022;SDS011;19390;51.460;5.710;2023-12-29T08:46:48;6.57;;;0.98;;
33022;SDS011;19390;51.460;5.710;2023-12-29T08:49:13;4.10;;;1.00;;
33022;SDS011;19390;51.460;5.710;2023-12-29T08:51:39;4.47;;;0.80;;
33022;SDS011;19390;51.460;5.710;2023-12-29T08:54:04;5.93;;;1.10;;
33022;SDS011;19390;51.460;5.710;2023-12-29T08:56:30;4.25;;;0.90;;
33022;SDS011;19390;51.460;5.710;2023-12-29T08:58:55;6.10;;;1.20;;
33022;SDS011;19390;51.460;5.710;2023-12-29T09:01:21;4.45;;;0.77;;
33022;SDS011;19390;51.460;5.710;2023-12-29T09:03:47;7.20;;;1.00;;
33022;SDS011;19390;51.460;5.710;2023-12-29T09:06:12;5.32;;;0.90;;
33022;SDS011;19390;51.460;5.710;2023-12-29T09:08:38;8.60;;;1.00;;
33022;SDS011;19390;51.460;5.710;2023-12-29T09:11:04;4.32;;;0.93;;
33022;SDS011;19390;51.460;5.710;2023-12-29T09:13:30;3.42;;;0.93;;
33022;SDS011;19390;51.460;5.710;2023-12-29T09:15:58;6.72;;;0.70;;
33022;SDS011;19390;51.460;5.710;2023-12-29T09:18:24;5.13;;;0.63;;
33022;SDS011;19390;51.460;5.710;2023-12-29T09:20:50;3.90;;;0.80;;
33022;SDS011;19390;51.460;5.710;2023-12-29T09:23:15;4.88;;;0.55;;
33022;SDS011;19390;51.460;5.710;2023-12-29T09:25:41;6.05;;;0.73;;
33022;SDS011;19390;51.460;5.710;2023-12-29T09:28:07;5.10;;;0.47;;
33022;SDS011;19390;51.460;5.710;2023-12-29T09:30:33;5.80;;;1.20;;
33022;SDS011;19390;51.460;5.710;2023-12-29T09:32:58;4.93;;;1.00;;
33022;SDS011;19390;51.460;5.710;2023-12-29T09:35:24;4.03;;;0.50;;
33022;SDS011;19390;51.460;5.710;2023-12-29T09:37:50;3.20;;;0.65;;
33022;SDS011;19390;51.460;5.710;2023-12-29T09:40:15;3.30;;;0.60;;
33022;SDS011;19390;51.460;5.710;2023-12-29T09:42:44;4.93;;;1.10;;
33022;SDS011;19390;51.460;5.710;2023-12-29T09:45:11;2.55;;;0.70;;
33022;SDS011;19390;51.460;5.710;2023-12-29T09:47:40;1.70;;;0.77;;
33022;SDS011;19390;51.460;5.710;2023-12-29T09:50:07;1.60;;;0.65;;
33022;SDS011;19390;51.460;5.710;2023-12-29T09:52:37;2.30;;;0.65;;
33022;SDS011;19390;51.460;5.710;2023-12-29T09:55:04;3.10;;;0.80;;
33022;SDS011;19390;51.460;5.710;2023-12-29T09:57:34;4.05;;;0.73;;
33022;SDS011;19390;51.460;5.710;2023-12-29T10:00:00;2.40;;;0.70;;
33022;SDS011;19390;51.460;5.710;2023-12-29T10:02:27;4.28;;;1.02;;
33022;SDS011;19390;51.460;5.710;2023-12-29T10:04:53;1.23;;;0.70;;
33022;SDS011;19390;51.460;5.710;2023-12-29T10:07:25;3.80;;;0.98;;
33022;SDS011;19390;51.460;5.710;2023-12-29T10:09:55;2.72;;;0.63;;
33022;SDS011;19390;51.460;5.710;2023-12-29T10:12:22;3.10;;;0.65;;
33022;SDS011;19390;51.460;5.710;2023-12-29T10:23:15;2.40;;;0.55;;
33022;SDS011;19390;51.460;5.710;2023-12-29T10:25:43;3.70;;;0.60;;
33022;SDS011;19390;51.460;5.710;2023-12-29T10:28:09;2.63;;;0.60;;
33022;SDS011;19390;51.460;5.710;2023-12-29T10:30:35;1.05;;;0.43;;
33022;SDS011;19390;51.460;5.710;2023-12-29T10:33:02;2.67;;;0.47;;
33022;SDS011;19390;51.460;5.710;2023-12-29T10:35:29;2.55;;;0.50;;
33022;SDS011;19390;51.460;5.710;2023-12-29T10:38:08;3.63;;;0.50;;
33022;SDS011;19390;51.460;5.710;2023-12-29T10:40:37;2.83;;;0.35;;
33022;SDS011;19390;51.460;5.710;2023-12-29T10:43:03;1.60;;;0.47;;
33022;SDS011;19390;51.460;5.710;2023-12-29T10:45:33;1.65;;;0.40;;
33022;SDS011;19390;51.460;5.710;2023-12-29T10:48:00;7.10;;;1.40;;
33022;SDS011;19390;51.460;5.710;2023-12-29T10:50:25;2.28;;;0.77;;
33022;SDS011;19390;51.460;5.710;2023-12-29T10:52:57;1.45;;;0.55;;
33022;SDS011;19390;51.460;5.710;2023-12-29T10:55:36;2.45;;;0.38;;
33022;SDS011;19390;51.460;5.710;2023-12-29T10:58:02;3.10;;;0.85;;
33022;SDS011;19390;51.460;5.710;2023-12-29T11:00:31;2.83;;;0.88;;
33022;SDS011;19390;51.460;5.710;2023-12-29T11:02:59;7.75;;;0.80;;
33022;SDS011;19390;51.460;5.710;2023-12-29T11:05:25;2.45;;;0.63;;
33022;SDS011;19390;51.460;5.710;2023-12-29T11:07:52;6.45;;;1.27;;
33022;SDS011;19390;51.460;5.710;2023-12-29T11:10:20;1.60;;;0.52;;
33022;SDS011;19390;51.460;5.710;2023-12-29T11:12:48;3.95;;;0.50;;
33022;SDS011;19390;51.460;5.710;2023-12-29T11:15:14;1.50;;;0.57;;
33022;SDS011;19390;51.460;5.710;2023-12-29T11:17:41;7.68;;;0.80;;
33022;SDS011;19390;51.460;5.710;2023-12-29T11:20:14;3.58;;;0.88;;
33022;SDS011;19390;51.460;5.710;2023-12-29T11:22:42;2.58;;;0.70;;
33022;SDS011;19390;51.460;5.710;2023-12-29T11:25:08;4.90;;;1.02;;
33022;SDS011;19390;51.460;5.710;2023-12-29T11:27:34;5.90;;;0.88;;
33022;SDS011;19390;51.460;5.710;2023-12-29T11:30:01;9.10;;;0.75;;
33022;SDS011;19390;51.460;5.710;2023-12-29T11:35:25;6.43;;;0.68;;
33022;SDS011;19390;51.460;5.710;2023-12-29T11:43:48;7.78;;;1.05;;
33022;SDS011;19390;51.460;5.710;2023-12-29T11:49:09;4.57;;;0.80;;
33022;SDS011;19390;51.460;5.710;2023-12-29T11:51:36;3.83;;;0.63;;
33022;SDS011;19390;51.460;5.710;2023-12-29T11:54:10;6.63;;;0.98;;
33022;SDS011;19390;51.460;5.710;2023-12-29T11:56:47;7.70;;;1.08;;
33022;SDS011;19390;51.460;5.710;2023-12-29T12:01:38;3.70;;;0.80;;
33022;SDS011;19390;51.460;5.710;2023-12-29T12:04:04;2.20;;;0.98;;
33022;SDS011;19390;51.460;5.710;2023-12-29T12:07:06;3.28;;;0.50;;
33022;SDS011;19390;51.460;5.710;2023-12-29T12:09:42;2.78;;;0.80;;
33022;SDS011;19390;51.460;5.710;2023-12-29T12:12:09;2.53;;;0.68;;
33022;SDS011;19390;51.460;5.710;2023-12-29T12:14:48;5.40;;;1.02;;
33022;SDS011;19390;51.460;5.710;2023-12-29T12:20:15;3.35;;;0.70;;
33022;SDS011;19390;51.460;5.710;2023-12-29T12:22:41;4.82;;;1.02;;
33022;SDS011;19390;51.460;5.710;2023-12-29T12:25:09;5.60;;;1.25;;
33022;SDS011;19390;51.460;5.710;2023-12-29T12:27:37;3.65;;;0.90;;
33022;SDS011;19390;51.460;5.710;2023-12-29T12:30:03;5.30;;;0.90;;
33022;SDS011;19390;51.460;5.710;2023-12-29T12:32:30;6.72;;;1.45;;
33022;SDS011;19390;51.460;5.710;2023-12-29T12:34:57;3.92;;;1.00;;
33022;SDS011;19390;51.460;5.710;2023-12-29T12:37:23;6.30;;;1.10;;
33022;SDS011;19390;51.460;5.710;2023-12-29T12:39:51;4.95;;;1.20;;
33022;SDS011;19390;51.460;5.710;2023-12-29T12:42:18;5.57;;;1.48;;
33022;SDS011;19390;51.460;5.710;2023-12-29T12:44:49;5.15;;;1.45;;
33022;SDS011;19390;51.460;5.710;2023-12-29T12:47:19;3.95;;;1.23;;
33022;SDS011;19390;51.460;5.710;2023-12-29T12:49:52;3.45;;;1.15;;
33022;SDS011;19390;51.460;5.710;2023-12-29T12:52:18;7.20;;;1.75;;
33022;SDS011;19390;51.460;5.710;2023-12-29T12:54:44;12.65;;;1.50;;
33022;SDS011;19390;51.460;5.710;2023-12-29T12:57:11;6.28;;;1.67;;
33022;SDS011;19390;51.460;5.710;2023-12-29T12:59:38;5.10;;;1.30;;
33022;SDS011;19390;51.460;5.710;2023-12-29T13:02:03;12.38;;;1.88;;
33022;SDS011;19390;51.460;5.710;2023-12-29T13:04:30;7.40;;;1.70;;
33022;SDS011;19390;51.460;5.710;2023-12-29T13:06:56;8.05;;;1.77;;
33022;SDS011;19390;51.460;5.710;2023-12-29T13:09:22;5.30;;;1.83;;
33022;SDS011;19390;51.460;5.710;2023-12-29T13:11:48;4.13;;;1.52;;
33022;SDS011;19390;51.460;5.710;2023-12-29T13:14:22;5.25;;;1.75;;
33022;SDS011;19390;51.460;5.710;2023-12-29T13:16:48;6.45;;;1.30;;
33022;SDS011;19390;51.460;5.710;2023-12-29T13:19:17;8.40;;;1.75;;
33022;SDS011;19390;51.460;5.710;2023-12-29T13:21:48;7.40;;;1.73;;
33022;SDS011;19390;51.460;5.710;2023-12-29T13:24:21;6.35;;;1.52;;
33022;SDS011;19390;51.460;5.710;2023-12-29T13:26:49;5.45;;;1.30;;
33022;SDS011;19390;51.460;5.710;2023-12-29T13:29:30;6.05;;;1.27;;
33022;SDS011;19390;51.460;5.710;2023-12-29T13:31:58;4.93;;;1.20;;
33022;SDS011;19390;51.460;5.710;2023-12-29T13:34:40;5.07;;;1.00;;
33022;SDS011;19390;51.460;5.710;2023-12-29T13:39:53;2.30;;;0.88;;
33022;SDS011;19390;51.460;5.710;2023-12-29T13:42:41;7.50;;;0.90;;
33022;SDS011;19390;51.460;5.710;2023-12-29T13:45:10;4.00;;;0.77;;
33022;SDS011;19390;51.460;5.710;2023-12-29T13:47:37;4.93;;;0.75;;
33022;SDS011;19390;51.460;5.710;2023-12-29T13:50:04;3.13;;;0.50;;
33022;SDS011;19390;51.460;5.710;2023-12-29T13:52:30;3.33;;;0.63;;
33022;SDS011;19390;51.460;5.710;2023-12-29T13:54:56;4.68;;;0.75;;
33022;SDS011;19390;51.460;5.710;2023-12-29T13:57:32;4.07;;;0.80;;
33022;SDS011;19390;51.460;5.710;2023-12-29T14:03:14;7.15;;;1.08;;
33022;SDS011;19390;51.460;5.710;2023-12-29T14:05:48;1.90;;;0.60;;
33022;SDS011;19390;51.460;5.710;2023-12-29T14:08:17;3.45;;;1.00;;
33022;SDS011;19390;51.460;5.710;2023-12-29T14:10:48;3.63;;;0.45;;
33022;SDS011;19390;51.460;5.710;2023-12-29T14:13:14;4.32;;;0.63;;
33022;SDS011;19390;51.460;5.710;2023-12-29T14:15:41;2.45;;;0.45;;
33022;SDS011;19390;51.460;5.710;2023-12-29T14:20:37;2.53;;;0.57;;
33022;SDS011;19390;51.460;5.710;2023-12-29T14:23:04;2.67;;;0.45;;
33022;SDS011;19390;51.460;5.710;2023-12-29T14:25:36;3.50;;;1.70;;
33022;SDS011;19390;51.460;5.710;2023-12-29T14:28:02;4.60;;;0.80;;
33022;SDS011;19390;51.460;5.710;2023-12-29T14:30:28;2.53;;;0.85;;
33022;SDS011;19390;51.460;5.710;2023-12-29T14:32:59;1.55;;;0.40;;
33022;SDS011;19390;51.460;5.710;2023-12-29T14:35:25;1.55;;;0.90;;
33022;SDS011;19390;51.460;5.710;2023-12-29T14:37:50;2.97;;;0.65;;
33022;SDS011;19390;51.460;5.710;2023-12-29T14:40:16;1.58;;;0.40;;
33022;SDS011;19390;51.460;5.710;2023-12-29T14:42:42;1.95;;;0.60;;
33022;SDS011;19390;51.460;5.710;2023-12-29T14:45:08;7.22;;;1.00;;
33022;SDS011;19390;51.460;5.710;2023-12-29T14:47:34;2.47;;;0.50;;
33022;SDS011;19390;51.460;5.710;2023-12-29T14:50:00;5.72;;;0.70;;
33022;SDS011;19390;51.460;5.710;2023-12-29T14:52:26;2.92;;;0.63;;
33022;SDS011;19390;51.460;5.710;2023-12-29T14:54:52;2.70;;;0.60;;
33022;SDS011;19390;51.460;5.710;2023-12-29T14:57:17;2.70;;;0.60;;
33022;SDS011;19390;51.460;5.710;2023-12-29T14:59:43;3.60;;;0.90;;
33022;SDS011;19390;51.460;5.710;2023-12-29T15:02:08;2.90;;;0.50;;
33022;SDS011;19390;51.460;5.710;2023-12-29T15:04:34;1.23;;;0.50;;
33022;SDS011;19390;51.460;5.710;2023-12-29T15:07:00;1.45;;;0.50;;
33022;SDS011;19390;51.460;5.710;2023-12-29T15:09:27;1.73;;;0.80;;
33022;SDS011;19390;51.460;5.710;2023-12-29T15:11:52;1.17;;;0.73;;
33022;SDS011;19390;51.460;5.710;2023-12-29T15:14:19;3.90;;;0.73;;
33022;SDS011;19390;51.460;5.710;2023-12-29T15:16:45;1.73;;;0.47;;
33022;SDS011;19390;51.460;5.710;2023-12-29T15:19:11;0.93;;;0.60;;